sensor_id;sensor_type;location;lat;lon;timestamp;temperature;humidity
10143;DHT22;5112;54.088;13.446;2023-12-04T00:01:19;-1.60;99.90
10143;DHT22;5112;54.088;13.446;2023-12-04T00:11:22;-1.70;99.90
10143;DHT22;5112;54.088;13.446;2023-12-04T00:21:24;-1.40;99.90
10143;DHT22;5112;54.088;13.446;2023-12-04T00:31:28;-1.60;99.90
10143;DHT22;5112;54.088;13.446;2023-12-04T00:41:31;-1.70;99.90
10143;DHT22;5112;54.088;13.446;2023-12-04T00:51:38;-1.50;99.90
10143;DHT22;5112;54.088;13.446;2023-12-04T01:01:40;-1.70;99.90
10143;DHT22;5112;54.088;13.446;2023-12-04T01:11:43;-1.70;99.90
10143;DHT22;5112;54.088;13.446;2023-12-04T01:21:45;-1.60;99.90
10143;DHT22;5112;54.088;13.446;2023-12-04T01:31:48;-1.60;99.90
10143;DHT22;5112;54.088;13.446;2023-12-04T01:41:49;-1.60;99.90
10143;DHT22;5112;54.088;13.446;2023-12-04T01:51:52;-1.60;99.90
10143;DHT22;5112;54.088;13.446;2023-12-04T02:01:54;-1.60;99.90
10143;DHT22;5112;54.088;13.446;2023-12-04T02:11:58;-1.50;99.90
10143;DHT22;5112;54.088;13.446;2023-12-04T02:22:00;-1.60;99.90
10143;DHT22;5112;54.088;13.446;2023-12-04T02:32:04;-1.70;99.90
10143;DHT22;5112;54.088;13.446;2023-12-04T02:42:07;-1.70;99.90
10143;DHT22;5112;54.088;13.446;2023-12-04T02:52:11;-1.70;99.90
10143;DHT22;5112;54.088;13.446;2023-12-04T03:02:13;-1.80;99.90
10143;DHT22;5112;54.088;13.446;2023-12-04T03:12:16;-1.90;99.90
10143;DHT22;5112;54.088;13.446;2023-12-04T03:22:18;-1.80;99.90
10143;DHT22;5112;54.088;13.446;2023-12-04T03:32:21;-1.90;99.90
10143;DHT22;5112;54.088;13.446;2023-12-04T03:42:22;-1.80;99.90
10143;DHT22;5112;54.088;13.446;2023-12-04T03:52:25;-1.80;99.90
10143;DHT22;5112;54.088;13.446;2023-12-04T04:02:27;-1.80;99.90
10143;DHT22;5112;54.088;13.446;2023-12-04T04:12:30;-1.80;99.90
10143;DHT22;5112;54.088;13.446;2023-12-04T04:22:32;-1.80;99.90
10143;DHT22;5112;54.088;13.446;2023-12-04T04:32:39;-1.80;99.90
10143;DHT22;5112;54.088;13.446;2023-12-04T04:42:40;-1.80;99.90
10143;DHT22;5112;54.088;13.446;2023-12-04T04:52:43;-1.60;99.90
10143;DHT22;5112;54.088;13.446;2023-12-04T05:02:45;-1.60;99.90
10143;DHT22;5112;54.088;13.446;2023-12-04T05:12:48;-1.50;99.90
10143;DHT22;5112;54.088;13.446;2023-12-04T05:22:49;-1.60;99.90
10143;DHT22;5112;54.088;13.446;2023-12-04T05:32:54;-1.70;99.90
10143;DHT22;5112;54.088;13.446;2023-12-04T05:42:56;-1.60;99.90
10143;DHT22;5112;54.088;13.446;2023-12-04T05:52:59;-1.70;99.90
10143;DHT22;5112;54.088;13.446;2023-12-04T06:03:01;-1.70;99.90
10143;DHT22;5112;54.088;13.446;2023-12-04T06:13:04;-1.70;99.90
10143;DHT22;5112;54.088;13.446;2023-12-04T06:23:06;-1.70;99.90
10143;DHT22;5112;54.088;13.446;2023-12-04T06:33:10;-1.80;99.90
10143;DHT22;5112;54.088;13.446;2023-12-04T06:43:13;-1.80;99.90
10143;DHT22;5112;54.088;13.446;2023-12-04T06:53:17;-1.80;99.90
10143;DHT22;5112;54.088;13.446;2023-12-04T07:03:19;-1.80;99.90
10143;DHT22;5112;54.088;13.446;2023-12-04T07:13:22;-1.80;99.90
10143;DHT22;5112;54.088;13.446;2023-12-04T07:23:24;-1.60;99.90
10143;DHT22;5112;54.088;13.446;2023-12-04T07:33:27;-1.90;99.90
10143;DHT22;5112;54.088;13.446;2023-12-04T07:43:29;-1.80;99.90
10143;DHT22;5112;54.088;13.446;2023-12-04T07:53:32;-1.80;99.90
10143;DHT22;5112;54.088;13.446;2023-12-04T08:03:34;-1.70;99.90
10143;DHT22;5112;54.088;13.446;2023-12-04T08:13:38;-1.80;99.90
10143;DHT22;5112;54.088;13.446;2023-12-04T08:23:39;-1.80;99.90
10143;DHT22;5112;54.088;13.446;2023-12-04T08:33:42;-1.80;99.90
10143;DHT22;5112;54.088;13.446;2023-12-04T08:43:45;-1.80;99.90
10143;DHT22;5112;54.088;13.446;2023-12-04T08:53:48;-1.80;99.90
10143;DHT22;5112;54.088;13.446;2023-12-04T09:03:52;-1.50;99.90
10143;DHT22;5112;54.088;13.446;2023-12-04T09:13:55;-1.60;99.90
10143;DHT22;5112;54.088;13.446;2023-12-04T09:23:56;-1.70;99.90
10143;DHT22;5112;54.088;13.446;2023-12-04T09:33:59;-1.40;99.90
10143;DHT22;5112;54.088;13.446;2023-12-04T09:44:01;-1.20;99.90
10143;DHT22;5112;54.088;13.446;2023-12-04T09:54:05;-1.30;99.90
10143;DHT22;5112;54.088;13.446;2023-12-04T10:04:08;-1.10;99.90
10143;DHT22;5112;54.088;13.446;2023-12-04T10:14:17;-0.90;99.90
10143;DHT22;5112;54.088;13.446;2023-12-04T10:24:32;-1.10;99.90
10143;DHT22;5112;54.088;13.446;2023-12-04T10:34:37;-1.00;99.90
10143;DHT22;5112;54.088;13.446;2023-12-04T10:44:40;-0.80;99.90
10143;DHT22;5112;54.088;13.446;2023-12-04T10:54:43;-0.80;99.90
10143;DHT22;5112;54.088;13.446;2023-12-04T11:04:45;-0.70;99.90
10143;DHT22;5112;54.088;13.446;2023-12-04T11:14:55;-0.70;99.90
10143;DHT22;5112;54.088;13.446;2023-12-04T11:24:57;-0.60;99.90
10143;DHT22;5112;54.088;13.446;2023-12-04T11:35:01;-0.40;99.90
10143;DHT22;5112;54.088;13.446;2023-12-04T11:45:06;0.30;99.90
10143;DHT22;5112;54.088;13.446;2023-12-04T11:55:09;0.30;99.90
10143;DHT22;5112;54.088;13.446;2023-12-04T12:05:11;0.20;99.90
10143;DHT22;5112;54.088;13.446;2023-12-04T12:15:15;0.10;99.90
10143;DHT22;5112;54.088;13.446;2023-12-04T12:25:17;0.30;99.90
10143;DHT22;5112;54.088;13.446;2023-12-04T12:35:21;0.00;99.90
10143;DHT22;5112;54.088;13.446;2023-12-04T12:45:23;-0.10;99.90
10143;DHT22;5112;54.088;13.446;2023-12-04T12:55:27;-0.10;99.90
10143;DHT22;5112;54.088;13.446;2023-12-04T13:05:28;-0.10;99.90
10143;DHT22;5112;54.088;13.446;2023-12-04T13:15:31;0.00;99.90
10143;DHT22;5112;54.088;13.446;2023-12-04T13:25:33;-0.20;99.90
10143;DHT22;5112;54.088;13.446;2023-12-04T13:35:36;-0.30;99.90
10143;DHT22;5112;54.088;13.446;2023-12-04T13:45:38;-0.40;99.90
10143;DHT22;5112;54.088;13.446;2023-12-04T13:55:41;-0.50;99.90
10143;DHT22;5112;54.088;13.446;2023-12-04T14:06:01;-0.50;99.90
10143;DHT22;5112;54.088;13.446;2023-12-04T14:16:05;-0.40;99.90
10143;DHT22;5112;54.088;13.446;2023-12-04T14:26:07;-0.40;99.90
10143;DHT22;5112;54.088;13.446;2023-12-04T14:36:10;-0.50;99.90
10143;DHT22;5112;54.088;13.446;2023-12-04T14:46:13;-0.40;99.90
10143;DHT22;5112;54.088;13.446;2023-12-04T14:56:17;-0.50;99.90
10143;DHT22;5112;54.088;13.446;2023-12-04T15:06:26;-0.40;99.90
10143;DHT22;5112;54.088;13.446;2023-12-04T15:16:45;-0.40;99.90
10143;DHT22;5112;54.088;13.446;2023-12-04T15:26:51;-0.40;99.90
10143;DHT22;5112;54.088;13.446;2023-12-04T15:36:54;-0.40;99.90
10143;DHT22;5112;54.088;13.446;2023-12-04T15:46:56;-0.50;99.90
10143;DHT22;5112;54.088;13.446;2023-12-04T15:56:59;-0.60;99.90
10143;DHT22;5112;54.088;13.446;2023-12-04T16:07:01;-0.60;99.90
10143;DHT22;5112;54.088;13.446;2023-12-04T16:17:04;-0.60;99.90
10143;DHT22;5112;54.088;13.446;2023-12-04T16:27:06;-0.60;99.90
10143;DHT22;5112;54.088;13.446;2023-12-04T16:37:10;-0.60;99.90
10143;DHT22;5112;54.088;13.446;2023-12-04T16:47:11;-0.60;99.90
10143;DHT22;5112;54.088;13.446;2023-12-04T16:57:14;-0.70;99.90
10143;DHT22;5112;54.088;13.446;2023-12-04T17:07:16;-0.60;99.90
10143;DHT22;5112;54.088;13.446;2023-12-04T17:17:19;-0.70;99.90
10143;DHT22;5112;54.088;13.446;2023-12-04T17:27:21;-0.60;99.90
10143;DHT22;5112;54.088;13.446;2023-12-04T17:37:24;-0.60;99.90
10143;DHT22;5112;54.088;13.446;2023-12-04T17:47:25;-0.70;99.90
10143;DHT22;5112;54.088;13.446;2023-12-04T17:57:28;-0.50;99.90
10143;DHT22;5112;54.088;13.446;2023-12-04T18:07:30;-0.60;99.90
10143;DHT22;5112;54.088;13.446;2023-12-04T18:17:33;-0.50;99.90
10143;DHT22;5112;54.088;13.446;2023-12-04T18:27:42;-0.40;99.90
10143;DHT22;5112;54.088;13.446;2023-12-04T18:37:52;-0.40;99.90
10143;DHT22;5112;54.088;13.446;2023-12-04T18:47:59;-0.40;99.90
10143;DHT22;5112;54.088;13.446;2023-12-04T18:58:03;-0.40;99.90
10143;DHT22;5112;54.088;13.446;2023-12-04T19:08:05;-0.40;99.90
10143;DHT22;5112;54.088;13.446;2023-12-04T19:18:08;-0.30;99.90
10143;DHT22;5112;54.088;13.446;2023-12-04T19:28:11;-0.30;99.90
10143;DHT22;5112;54.088;13.446;2023-12-04T19:38:14;-0.30;99.90
10143;DHT22;5112;54.088;13.446;2023-12-04T19:48:19;-0.30;99.90
10143;DHT22;5112;54.088;13.446;2023-12-04T19:58:23;-0.30;99.90
10143;DHT22;5112;54.088;13.446;2023-12-04T20:08:24;-0.30;99.90
10143;DHT22;5112;54.088;13.446;2023-12-04T20:18:27;-0.20;99.90
10143;DHT22;5112;54.088;13.446;2023-12-04T20:28:30;-0.40;99.90
10143;DHT22;5112;54.088;13.446;2023-12-04T20:38:33;-0.50;99.90
10143;DHT22;5112;54.088;13.446;2023-12-04T20:48:35;-0.30;99.90
10143;DHT22;5112;54.088;13.446;2023-12-04T20:58:38;-0.60;99.90
10143;DHT22;5112;54.088;13.446;2023-12-04T21:08:40;-0.70;99.90
10143;DHT22;5112;54.088;13.446;2023-12-04T21:18:44;-0.80;99.90
10143;DHT22;5112;54.088;13.446;2023-12-04T21:28:45;-0.90;99.90
10143;DHT22;5112;54.088;13.446;2023-12-04T21:38:48;-0.70;99.90
10143;DHT22;5112;54.088;13.446;2023-12-04T21:48:50;-0.60;99.90
10143;DHT22;5112;54.088;13.446;2023-12-04T21:58:53;-0.60;99.90
10143;DHT22;5112;54.088;13.446;2023-12-04T22:08:55;-0.50;99.90
10143;DHT22;5112;54.088;13.446;2023-12-04T22:18:59;-0.50;99.90
10143;DHT22;5112;54.088;13.446;2023-12-04T22:29:00;-0.30;99.90
10143;DHT22;5112;54.088;13.446;2023-12-04T22:39:03;-0.20;99.90
10143;DHT22;5112;54.088;13.446;2023-12-04T22:49:05;-0.30;99.90
10143;DHT22;5112;54.088;13.446;2023-12-04T22:59:08;-0.20;99.90
10143;DHT22;5112;54.088;13.446;2023-12-04T23:09:10;-0.10;99.90
10143;DHT22;5112;54.088;13.446;2023-12-04T23:19:14;-0.10;99.90
10143;DHT22;5112;54.088;13.446;2023-12-04T23:29:16;-0.20;99.90
10143;DHT22;5112;54.088;13.446;2023-12-04T23:39:19;-0.20;99.90
10143;DHT22;5112;54.088;13.446;2023-12-04T23:49:21;-0.10;99.90
10143;DHT22;5112;54.088;13.446;2023-12-04T23:59:24;-0.20;99.90
